Time;durP1;ratioP1;P1;durP2;ratioP2;P2;SDS_P1;SDS_P2;PMS_P1;PMS_P2;Temp;Humidity;BMP_temperature;BMP_pressure;BME280_temperature;BME280_humidity;BME280_pressure;Samples;Min_cycle;Max_cycle;Signal;HPM_P1;HPM_P2
2021/12/27 00:00:09;;;;;;;52.13;24.63;;;1.10;99.90;;;;;;4190578;28;20293;-56
2021/12/27 00:02:10;;;;;;;42.77;21.23;;;1.10;99.90;;;;;;4189035;28;20269;-53
2021/12/27 00:04:13;;;;;;;39.27;19.60;;;1.10;99.90;;;;;;4190149;28;20654;-60
2021/12/27 00:06:14;;;;;;;42.00;21.20;;;1.10;99.90;;;;;;4189387;28;20315;-63
2021/12/27 00:08:15;;;;;;;45.23;21.13;;;1.10;99.90;;;;;;4190205;28;20265;-53
2021/12/27 00:10:17;;;;;;;38.63;19.27;;;1.10;99.90;;;;;;4189231;28;20769;-57
2021/12/27 00:12:19;;;;;;;49.40;24.17;;;1.10;99.90;;;;;;4193066;28;20273;-55
2021/12/27 00:14:20;;;;;;;48.67;23.63;;;1.10;99.90;;;;;;4191477;28;20811;-60
2021/12/27 00:16:21;;;;;;;47.10;22.07;;;1.10;99.90;;;;;;4193534;28;20791;-52
2021/12/27 00:18:22;;;;;;;39.47;21.30;;;1.10;99.90;;;;;;4191779;28;20265;-54
2021/12/27 00:20:23;;;;;;;40.37;20.53;;;1.10;99.90;;;;;;4193156;28;20313;-58
2021/12/27 00:22:25;;;;;;;40.60;20.67;;;1.10;99.90;;;;;;4192520;28;20326;-56
2021/12/27 00:24:26;;;;;;;41.53;20.87;;;1.10;99.90;;;;;;4192307;28;20278;-57
2021/12/27 00:26:27;;;;;;;40.43;20.27;;;1.20;99.90;;;;;;4192609;28;20395;-60
2021/12/27 00:28:30;;;;;;;41.37;19.93;;;1.20;99.90;;;;;;4192567;28;20261;-55
2021/12/27 00:30:31;;;;;;;39.83;20.53;;;1.20;99.90;;;;;;4192688;28;20763;-55
2021/12/27 00:32:33;;;;;;;41.13;20.20;;;1.10;99.90;;;;;;4189980;28;20315;-58
2021/12/27 00:34:36;;;;;;;37.40;19.10;;;1.20;99.90;;;;;;4193162;28;20672;-57
2021/12/27 00:36:37;;;;;;;43.20;20.97;;;1.20;99.90;;;;;;4191910;28;20374;-56
2021/12/27 00:38:38;;;;;;;36.87;18.60;;;1.20;99.90;;;;;;4193193;28;20266;-55
2021/12/27 00:40:40;;;;;;;37.80;19.50;;;1.20;99.90;;;;;;4192004;28;20870;-56
2021/12/27 00:42:41;;;;;;;39.80;20.77;;;1.20;99.90;;;;;;4192798;28;20292;-56
2021/12/27 00:44:42;;;;;;;39.60;20.17;;;1.10;99.90;;;;;;4191615;28;20765;-57
2021/12/27 00:46:44;;;;;;;37.23;19.47;;;1.10;99.90;;;;;;4193093;28;20323;-54
2021/12/27 00:48:45;;;;;;;45.93;23.03;;;1.10;99.90;;;;;;4191920;28;20267;-58
2021/12/27 00:50:46;;;;;;;43.63;22.67;;;1.10;99.90;;;;;;4193033;28;20331;-55
2021/12/27 00:52:48;;;;;;;48.90;23.67;;;1.10;99.90;;;;;;4191560;28;20237;-54
2021/12/27 00:54:49;;;;;;;46.00;24.50;;;1.10;99.90;;;;;;4192669;28;20263;-59
2021/12/27 00:56:50;;;;;;;47.93;25.97;;;1.10;99.90;;;;;;4192379;28;20338;-56
2021/12/27 00:58:51;;;;;;;47.37;23.80;;;1.10;99.90;;;;;;4192170;28;20277;-57
2021/12/27 01:00:53;;;;;;;40.87;20.77;;;1.10;99.90;;;;;;4192467;28;20289;-56
2021/12/27 01:02:55;;;;;;;35.33;20.17;;;1.10;99.90;;;;;;4191329;28;20326;-55
2021/12/27 01:04:57;;;;;;;38.30;21.50;;;1.10;99.90;;;;;;4192233;28;20273;-56
2021/12/27 01:06:58;;;;;;;38.40;21.20;;;1.10;99.90;;;;;;4191117;28;20440;-53
2021/12/27 01:08:59;;;;;;;42.33;21.30;;;1.10;99.90;;;;;;4192352;28;20308;-55
2021/12/27 01:11:24;;;;;;;43.47;21.37;;;1.10;99.90;;;;;;4191195;28;20330;-54
2021/12/27 01:13:39;;;;;;;46.40;22.37;;;1.10;99.90;;;;;;4192334;28;20338;-57
2021/12/27 01:17:45;;;;;;;49.30;25.40;;;1.10;99.90;;;;;;4192517;28;20322;-54
2021/12/27 01:19:46;;;;;;;47.53;25.03;;;1.20;99.90;;;;;;4190163;28;20281;-53
2021/12/27 01:21:47;;;;;;;46.13;24.03;;;1.20;99.90;;;;;;4192023;28;20331;-56
2021/12/27 01:23:50;;;;;;;43.03;24.30;;;1.20;99.90;;;;;;4190996;28;20281;-55
2021/12/27 01:25:51;;;;;;;49.60;24.13;;;1.20;99.90;;;;;;4192698;28;20277;-60
2021/12/27 01:27:52;;;;;;;41.57;22.50;;;1.20;99.90;;;;;;4191061;28;20269;-57
2021/12/27 01:29:53;;;;;;;46.23;23.57;;;1.10;99.90;;;;;;4192677;28;20273;-58
2021/12/27 01:31:55;;;;;;;43.90;23.53;;;1.10;99.90;;;;;;4190751;28;20343;-57
2021/12/27 01:33:56;;;;;;;48.43;24.43;;;1.20;99.90;;;;;;4191783;28;20277;-60
2021/12/27 01:35:58;;;;;;;45.00;22.63;;;1.20;99.90;;;;;;4190701;28;20257;-53
2021/12/27 01:37:59;;;;;;;52.80;23.13;;;1.20;99.90;;;;;;4191371;28;20277;-58
2021/12/27 01:40:00;;;;;;;46.57;23.27;;;1.10;99.90;;;;;;4191267;28;20278;-59
2021/12/27 01:42:02;;;;;;;51.03;23.40;;;1.20;99.90;;;;;;4190989;28;20273;-56
2021/12/27 01:44:04;;;;;;;53.27;25.53;;;1.10;99.90;;;;;;4191668;28;20265;-60
2021/12/27 01:46:20;;;;;;;49.40;24.20;;;1.10;99.90;;;;;;4190573;28;20334;-56
2021/12/27 01:48:28;;;;;;;50.23;24.67;;;1.10;99.90;;;;;;4191624;28;20319;-58
2021/12/27 01:50:30;;;;;;;40.97;21.17;;;1.10;99.90;;;;;;4190337;28;20318;-57
2021/12/27 01:52:31;;;;;;;46.13;24.27;;;1.10;99.90;;;;;;4191595;28;20771;-57
2021/12/27 01:54:32;;;;;;;46.47;23.53;;;1.10;99.90;;;;;;4190327;28;20273;-53
2021/12/27 01:56:33;;;;;;;43.07;20.80;;;1.10;99.90;;;;;;4191603;28;20335;-57
2021/12/27 01:58:35;;;;;;;45.57;23.50;;;1.00;99.90;;;;;;4190427;28;20323;-58
2021/12/27 02:00:40;;;;;;;38.37;21.33;;;1.00;99.90;;;;;;4191749;28;20350;-54
2021/12/27 02:02:41;;;;;;;44.20;23.13;;;1.00;99.90;;;;;;4190709;28;20261;-54
2021/12/27 02:04:42;;;;;;;47.10;23.97;;;1.00;99.90;;;;;;4191764;28;20269;-57
2021/12/27 02:06:43;;;;;;;47.07;23.27;;;1.00;99.90;;;;;;4190290;28;20261;-55
2021/12/27 02:08:44;;;;;;;41.67;21.33;;;1.00;99.90;;;;;;4191582;28;20289;-55
2021/12/27 02:10:49;;;;;;;47.33;22.70;;;1.00;99.90;;;;;;4190554;28;20645;-57
2021/12/27 02:12:51;;;;;;;46.43;21.73;;;0.90;99.90;;;;;;4191115;28;20295;-57
2021/12/27 02:14:52;;;;;;;48.10;22.17;;;0.90;99.90;;;;;;4190787;28;20269;-53
2021/12/27 02:16:53;;;;;;;43.70;21.77;;;0.90;99.90;;;;;;4191218;28;20273;-53
2021/12/27 02:18:55;;;;;;;46.50;22.30;;;1.00;99.90;;;;;;4190708;28;20303;-54
2021/12/27 02:20:56;;;;;;;43.60;21.80;;;1.00;99.90;;;;;;4190255;28;20289;-55
2021/12/27 02:23:01;;;;;;;40.47;21.10;;;1.00;99.90;;;;;;4190826;28;20322;-58
2021/12/27 02:25:05;;;;;;;42.30;20.57;;;1.00;99.90;;;;;;4190165;28;20326;-57
2021/12/27 02:27:14;;;;;;;40.50;20.13;;;1.00;99.90;;;;;;4191490;28;20257;-55
2021/12/27 02:29:15;;;;;;;39.63;21.27;;;0.90;99.90;;;;;;4190143;28;20265;-57
2021/12/27 02:31:17;;;;;;;43.70;20.70;;;0.90;99.90;;;;;;4190822;28;20257;-56
2021/12/27 02:33:19;;;;;;;44.30;22.03;;;1.00;99.90;;;;;;4189302;28;21036;-57
2021/12/27 02:35:24;;;;;;;42.47;22.00;;;1.00;99.90;;;;;;4191270;28;20291;-57
2021/12/27 02:37:25;;;;;;;44.50;20.07;;;1.00;99.90;;;;;;4189667;28;20262;-55
2021/12/27 02:39:28;;;;;;;51.23;23.70;;;1.00;99.90;;;;;;4191459;28;20328;-57
2021/12/27 02:41:30;;;;;;;44.13;21.03;;;1.00;99.90;;;;;;4190108;28;20285;-58
2021/12/27 02:43:32;;;;;;;49.10;24.23;;;1.00;99.90;;;;;;4191019;28;20324;-55
2021/12/27 02:45:43;;;;;;;43.17;22.93;;;1.00;99.90;;;;;;4189247;28;20619;-57
2021/12/27 02:47:44;;;;;;;46.07;21.73;;;1.00;99.90;;;;;;4190996;28;20285;-56
2021/12/27 02:49:45;;;;;;;37.23;20.17;;;1.00;99.90;;;;;;4190251;28;20315;-55
2021/12/27 02:51:46;;;;;;;41.00;21.23;;;1.00;99.90;;;;;;4190807;28;20595;-57
2021/12/27 02:53:48;;;;;;;43.43;20.07;;;1.00;99.90;;;;;;4190056;28;20322;-57
2021/12/27 02:55:52;;;;;;;39.77;19.37;;;1.00;99.90;;;;;;4189725;28;20737;-56
2021/12/27 02:57:53;;;;;;;41.87;19.60;;;1.00;99.90;;;;;;4190442;28;20258;-56
2021/12/27 02:59:57;;;;;;;40.23;20.57;;;1.00;99.90;;;;;;4190039;28;20258;-57
2021/12/27 03:01:58;;;;;;;43.20;20.87;;;1.00;99.90;;;;;;4190139;28;20296;-58
2021/12/27 03:03:59;;;;;;;42.20;20.47;;;1.00;99.90;;;;;;4189520;28;20293;-57
2021/12/27 03:06:00;;;;;;;43.83;21.47;;;1.00;99.90;;;;;;4191164;28;20269;-54
2021/12/27 03:08:03;;;;;;;45.83;21.20;;;1.00;99.90;;;;;;4189215;28;20688;-54
2021/12/27 03:10:04;;;;;;;50.17;22.73;;;0.90;99.90;;;;;;4190968;28;20270;-57
2021/12/27 03:12:10;;;;;;;44.33;21.70;;;0.90;99.90;;;;;;4189491;28;20269;-55
2021/12/27 03:14:12;;;;;;;42.57;20.53;;;0.90;99.90;;;;;;4191036;28;20273;-57
2021/12/27 03:16:15;;;;;;;42.77;19.53;;;0.90;99.90;;;;;;4187893;28;20285;-58
2021/12/27 03:18:17;;;;;;;39.23;19.93;;;0.90;99.90;;;;;;4190741;28;20339;-57
2021/12/27 03:20:23;;;;;;;39.73;20.30;;;0.90;99.90;;;;;;4189425;28;20347;-57
2021/12/27 03:22:24;;;;;;;44.47;21.10;;;0.90;99.90;;;;;;4191060;28;20273;-56
2021/12/27 03:24:25;;;;;;;36.17;18.77;;;1.00;99.90;;;;;;4189633;28;20269;-54
2021/12/27 03:26:26;;;;;;;36.50;19.83;;;1.00;99.90;;;;;;4190502;28;20261;-57
2021/12/27 03:28:28;;;;;;;38.03;20.33;;;1.00;99.90;;;;;;4189539;28;20278;-55
2021/12/27 03:30:29;;;;;;;40.07;19.83;;;1.00;99.90;;;;;;4190581;28;20269;-59
2021/12/27 03:32:32;;;;;;;38.87;20.13;;;1.00;99.90;;;;;;4189949;28;20381;-58
2021/12/27 03:34:40;;;;;;;37.30;19.33;;;1.00;99.90;;;;;;4190259;28;20269;-56
2021/12/27 03:36:42;;;;;;;39.97;19.97;;;1.00;99.90;;;;;;4190108;28;20599;-58
2021/12/27 03:38:52;;;;;;;39.77;20.00;;;1.10;99.90;;;;;;4189675;28;20295;-56
2021/12/27 03:40:53;;;;;;;39.00;17.90;;;1.10;99.90;;;;;;4190444;28;20823;-59
2021/12/27 03:42:56;;;;;;;37.63;17.87;;;1.10;99.90;;;;;;4189590;28;20024;-57
2021/12/27 03:44:57;;;;;;;38.63;19.93;;;1.10;99.90;;;;;;4190984;28;20261;-56
2021/12/27 03:46:58;;;;;;;36.33;18.93;;;1.10;99.90;;;;;;4192437;28;20257;-55
2021/12/27 03:48:59;;;;;;;39.57;19.80;;;1.10;99.90;;;;;;4194445;28;20816;-58
2021/12/27 03:51:02;;;;;;;39.17;19.83;;;1.10;99.90;;;;;;4192340;28;20277;-55
2021/12/27 03:53:05;;;;;;;33.93;18.13;;;1.10;99.90;;;;;;4194002;28;20277;-56
2021/12/27 03:55:07;;;;;;;36.40;16.93;;;1.10;99.90;;;;;;4192293;28;20311;-57
2021/12/27 03:57:09;;;;;;;34.57;17.93;;;1.10;99.90;;;;;;4193535;28;20277;-54
2021/12/27 03:59:35;;;;;;;30.57;17.40;;;1.10;99.90;;;;;;4192464;28;20342;-58
2021/12/27 04:01:37;;;;;;;36.10;18.90;;;1.10;99.90;;;;;;4193380;28;20626;-57
2021/12/27 04:03:38;;;;;;;32.37;17.50;;;1.10;99.90;;;;;;4192147;28;20277;-55
2021/12/27 04:05:39;;;;;;;32.23;17.97;;;1.10;99.90;;;;;;4193164;28;20319;-59
2021/12/27 04:07:44;;;;;;;29.57;17.43;;;1.10;99.90;;;;;;4192189;28;20749;-55
2021/12/27 04:09:45;;;;;;;36.83;19.27;;;1.10;99.90;;;;;;4192903;28;20296;-57
2021/12/27 04:11:46;;;;;;;35.33;17.80;;;1.10;99.90;;;;;;4192273;28;20318;-61
2021/12/27 04:13:48;;;;;;;34.73;18.53;;;1.10;99.90;;;;;;4193067;28;20819;-58
2021/12/27 04:15:50;;;;;;;34.80;19.23;;;1.10;99.90;;;;;;4192760;28;20811;-57
2021/12/27 04:17:52;;;;;;;39.73;19.13;;;1.10;99.90;;;;;;4192521;28;22052;-57
2021/12/27 04:19:53;;;;;;;39.17;19.73;;;1.10;99.90;;;;;;4193161;28;20322;-58
2021/12/27 04:21:54;;;;;;;39.43;19.80;;;1.10;99.90;;;;;;4191641;28;20288;-55
2021/12/27 04:23:55;;;;;;;38.53;19.07;;;1.10;99.90;;;;;;4192904;28;20277;-53
2021/12/27 04:25:57;;;;;;;40.03;20.63;;;1.10;99.90;;;;;;4192167;28;21130;-54
2021/12/27 04:27:58;;;;;;;38.03;21.10;;;1.10;99.90;;;;;;4193084;28;20732;-56
2021/12/27 04:29:59;;;;;;;44.00;21.73;;;1.10;99.90;;;;;;4192381;28;20269;-57
2021/12/27 04:32:00;;;;;;;44.53;22.70;;;1.10;99.90;;;;;;4193152;28;20269;-58
2021/12/27 04:34:01;;;;;;;43.40;22.60;;;1.10;99.90;;;;;;4191845;28;20272;-57
2021/12/27 04:36:03;;;;;;;46.83;22.67;;;1.10;99.90;;;;;;4192697;28;20273;-57
2021/12/27 04:38:04;;;;;;;49.37;23.50;;;1.10;99.90;;;;;;4191916;28;20265;-57
2021/12/27 04:40:08;;;;;;;45.27;23.00;;;1.10;99.90;;;;;;4192879;28;20668;-57
2021/12/27 04:42:10;;;;;;;46.13;23.97;;;1.10;99.90;;;;;;4191950;28;20299;-57
2021/12/27 04:44:11;;;;;;;50.30;24.40;;;1.10;99.90;;;;;;4192739;28;20315;-57
2021/12/27 04:46:12;;;;;;;51.10;23.13;;;1.10;99.90;;;;;;4192042;28;20258;-58
2021/12/27 04:48:16;;;;;;;49.93;23.97;;;1.10;99.90;;;;;;4192106;28;20273;-57
2021/12/27 04:50:17;;;;;;;46.77;24.77;;;1.10;99.90;;;;;;4192552;28;20253;-59
2021/12/27 04:52:18;;;;;;;46.27;23.10;;;1.10;99.90;;;;;;4192128;28;20270;-56
2021/12/27 04:54:19;;;;;;;47.97;22.60;;;1.10;99.90;;;;;;4192047;28;20285;-58
2021/12/27 04:56:21;;;;;;;39.63;20.73;;;1.10;99.90;;;;;;4190444;28;20281;-57
2021/12/27 04:58:23;;;;;;;42.53;20.80;;;1.00;99.90;;;;;;4192618;28;20284;-56
2021/12/27 05:00:24;;;;;;;40.90;22.13;;;1.00;99.90;;;;;;4191998;28;20269;-55
2021/12/27 05:02:25;;;;;;;42.10;20.63;;;1.00;99.90;;;;;;4192675;28;20350;-58
2021/12/27 05:04:26;;;;;;;43.50;22.10;;;1.00;99.90;;;;;;4191429;28;20273;-56
2021/12/27 05:06:27;;;;;;;46.20;25.03;;;1.00;99.90;;;;;;4192921;28;20282;-57
2021/12/27 05:08:29;;;;;;;46.53;23.87;;;1.00;99.90;;;;;;4190921;28;20331;-56
2021/12/27 05:10:30;;;;;;;53.23;25.70;;;1.00;99.90;;;;;;4192604;28;20278;-57
2021/12/27 05:12:32;;;;;;;54.13;27.60;;;1.00;99.90;;;;;;4190963;28;20265;-56
2021/12/27 05:14:33;;;;;;;51.60;26.97;;;1.00;99.90;;;;;;4192391;28;20414;-59
2021/12/27 05:16:34;;;;;;;53.07;27.47;;;1.00;99.90;;;;;;4191129;28;20258;-57
2021/12/27 05:18:35;;;;;;;55.10;27.17;;;1.00;99.90;;;;;;4191727;28;20331;-57
2021/12/27 05:20:36;;;;;;;54.37;27.20;;;1.00;99.90;;;;;;4191494;28;20668;-58
2021/12/27 05:22:38;;;;;;;51.90;25.97;;;1.00;99.90;;;;;;4191394;28;20289;-60
2021/12/27 05:24:40;;;;;;;47.13;24.33;;;1.00;99.90;;;;;;4191767;28;20672;-58
2021/12/27 05:26:41;;;;;;;48.40;25.27;;;1.00;99.90;;;;;;4191203;28;20802;-57
2021/12/27 05:28:42;;;;;;;46.90;23.87;;;1.00;99.90;;;;;;4192050;28;20265;-57
2021/12/27 05:30:47;;;;;;;51.93;26.60;;;1.00;99.90;;;;;;4191817;28;20296;-54
2021/12/27 05:32:49;;;;;;;52.53;27.77;;;1.00;99.90;;;;;;4191863;28;20714;-59
2021/12/27 05:34:50;;;;;;;58.17;31.17;;;1.00;99.90;;;;;;4190170;28;20262;-54
2021/12/27 05:36:51;;;;;;;53.80;28.40;;;1.00;99.90;;;;;;4191370;28;20261;-56
2021/12/27 05:38:52;;;;;;;54.37;28.77;;;1.00;99.90;;;;;;4190302;28;20266;-58
2021/12/27 05:40:54;;;;;;;50.30;27.73;;;0.90;99.90;;;;;;4191184;28;20245;-58
2021/12/27 05:42:55;;;;;;;47.63;25.37;;;0.90;99.90;;;;;;4190207;28;20262;-58
2021/12/27 05:44:56;;;;;;;43.67;23.87;;;0.90;99.90;;;;;;4191244;28;20346;-58
2021/12/27 05:46:57;;;;;;;40.10;21.83;;;0.90;99.90;;;;;;4190171;28;20324;-57
2021/12/27 05:48:58;;;;;;;48.00;25.47;;;0.90;99.90;;;;;;4191104;28;20640;-58
2021/12/27 05:50:59;;;;;;;47.30;23.90;;;0.90;99.90;;;;;;4189486;28;20323;-58
2021/12/27 05:53:01;;;;;;;40.37;21.33;;;1.00;99.90;;;;;;4190768;28;20668;-58
2021/12/27 05:55:04;;;;;;;45.40;23.70;;;1.00;99.90;;;;;;4191540;28;20277;-58
2021/12/27 05:57:05;;;;;;;38.77;21.27;;;1.00;99.90;;;;;;4190656;28;20257;-58
2021/12/27 05:59:06;;;;;;;38.03;22.00;;;1.00;99.90;;;;;;4191424;28;20285;-59
2021/12/27 06:01:07;;;;;;;40.87;20.57;;;1.00;99.90;;;;;;4190326;28;20327;-57
2021/12/27 06:03:08;;;;;;;46.53;23.10;;;1.00;99.90;;;;;;4191650;28;20318;-57
2021/12/27 06:05:11;;;;;;;44.37;21.33;;;1.00;99.90;;;;;;4190269;28;20334;-58
2021/12/27 06:07:12;;;;;;;39.83;22.03;;;0.90;99.90;;;;;;4191438;28;20656;-59
2021/12/27 06:09:14;;;;;;;38.27;20.93;;;1.00;99.90;;;;;;4190419;28;20261;-59
2021/12/27 06:11:15;;;;;;;40.40;20.83;;;1.00;99.90;;;;;;4191337;28;20402;-58
2021/12/27 06:13:16;;;;;;;39.37;18.70;;;1.00;99.90;;;;;;4190132;28;20307;-56
2021/12/27 06:15:17;;;;;;;38.27;19.50;;;1.00;99.90;;;;;;4191124;28;20307;-57
2021/12/27 06:17:18;;;;;;;40.77;21.50;;;1.00;99.90;;;;;;4190065;28;20257;-62
2021/12/27 06:19:20;;;;;;;38.90;18.90;;;1.00;99.90;;;;;;4191010;28;20757;-62
2021/12/27 06:21:22;;;;;;;35.73;19.47;;;1.00;99.90;;;;;;4190136;28;20265;-57
2021/12/27 06:23:23;;;;;;;41.97;20.30;;;1.00;99.90;;;;;;4190520;28;20269;-59
2021/12/27 06:25:25;;;;;;;42.73;20.37;;;1.00;99.90;;;;;;4190644;28;20276;-57
2021/12/27 06:27:26;;;;;;;44.30;21.17;;;1.00;99.90;;;;;;4189871;28;20262;-63
2021/12/27 06:29:27;;;;;;;48.00;23.20;;;1.00;99.90;;;;;;4191027;28;20331;-57
2021/12/27 06:31:28;;;;;;;44.33;22.53;;;1.10;99.90;;;;;;4190223;28;20277;-61
2021/12/27 06:33:29;;;;;;;50.80;23.67;;;1.00;99.90;;;;;;4190981;28;20724;-58
2021/12/27 06:35:31;;;;;;;44.43;22.57;;;1.00;99.90;;;;;;4189966;28;20603;-60
2021/12/27 06:37:32;;;;;;;47.73;22.63;;;1.00;99.90;;;;;;4191076;28;20265;-56
2021/12/27 06:39:34;;;;;;;46.80;22.33;;;1.00;99.90;;;;;;4190126;28;20269;-62
2021/12/27 06:41:36;;;;;;;49.93;23.13;;;1.00;99.90;;;;;;4191445;28;20281;-59
2021/12/27 06:43:37;;;;;;;51.30;22.27;;;1.00;99.90;;;;;;4189702;28;20342;-59
2021/12/27 06:45:39;;;;;;;51.77;22.47;;;1.00;99.90;;;;;;4190513;28;20741;-58
2021/12/27 06:47:40;;;;;;;58.17;23.17;;;0.90;99.90;;;;;;4189351;28;20262;-58
2021/12/27 06:49:42;;;;;;;58.97;26.07;;;1.00;99.90;;;;;;4190396;28;20319;-59
2021/12/27 06:51:43;;;;;;;71.10;22.67;;;1.00;99.90;;;;;;4189706;28;20726;-63
2021/12/27 06:53:45;;;;;;;50.57;23.37;;;0.90;99.90;;;;;;4190290;28;20281;-57
2021/12/27 06:55:48;;;;;;;63.70;26.37;;;0.90;99.90;;;;;;4190011;28;20257;-60
2021/12/27 06:57:49;;;;;;;60.73;26.37;;;1.00;99.90;;;;;;4189526;28;20315;-59
2021/12/27 06:59:50;;;;;;;59.47;25.67;;;1.00;99.90;;;;;;4190889;28;20277;-60
2021/12/27 07:01:51;;;;;;;56.90;24.70;;;1.00;99.90;;;;;;4189243;28;20297;-58
2021/12/27 07:03:52;;;;;;;61.87;26.93;;;0.90;99.90;;;;;;4190712;28;20269;-57
2021/12/27 07:05:53;;;;;;;71.30;27.43;;;0.90;99.90;;;;;;4188715;28;20323;-58
2021/12/27 07:07:54;;;;;;;61.87;26.73;;;0.90;99.90;;;;;;4190491;28;20323;-58
2021/12/27 07:09:56;;;;;;;64.07;27.53;;;0.90;99.90;;;;;;4187093;28;20273;-55
2021/12/27 07:11:57;;;;;;;61.50;27.13;;;1.00;99.90;;;;;;4190487;28;20342;-58
2021/12/27 07:13:58;;;;;;;68.43;27.63;;;1.00;99.90;;;;;;4188600;28;20674;-58
2021/12/27 07:15:59;;;;;;;61.30;27.37;;;1.00;99.90;;;;;;4190122;28;20334;-58
2021/12/27 07:18:00;;;;;;;75.23;27.87;;;1.00;99.90;;;;;;4189092;28;20274;-55
2021/12/27 07:20:02;;;;;;;65.57;26.40;;;1.00;99.90;;;;;;4189796;28;20273;-54
2021/12/27 07:22:04;;;;;;;63.57;28.07;;;1.00;99.90;;;;;;4188720;28;20289;-57
2021/12/27 07:24:05;;;;;;;65.17;27.30;;;1.00;99.90;;;;;;4188979;28;20285;-56
2021/12/27 07:26:06;;;;;;;57.53;26.63;;;1.00;99.90;;;;;;4189095;28;20323;-55
2021/12/27 07:28:07;;;;;;;58.83;24.70;;;1.10;99.90;;;;;;4189288;28;20261;-56
2021/12/27 07:30:11;;;;;;;55.90;24.60;;;1.10;99.90;;;;;;4190830;28;20330;-58
2021/12/27 07:32:12;;;;;;;58.27;27.13;;;1.10;99.90;;;;;;4189223;28;20277;-58
2021/12/27 07:34:14;;;;;;;51.70;23.90;;;1.10;99.90;;;;;;4190244;28;20326;-57
2021/12/27 07:36:15;;;;;;;58.63;25.50;;;1.10;99.90;;;;;;4188798;28;20277;-57
2021/12/27 07:38:16;;;;;;;48.77;22.77;;;1.10;99.90;;;;;;4190114;28;20270;-59
2021/12/27 07:40:17;;;;;;;49.83;24.00;;;1.10;99.90;;;;;;4187348;28;21270;-60
2021/12/27 07:42:18;;;;;;;57.07;24.87;;;1.20;99.90;;;;;;4190026;28;20293;-58
2021/12/27 07:44:19;;;;;;;51.13;24.27;;;1.20;99.90;;;;;;4188827;28;20322;-59
2021/12/27 07:46:20;;;;;;;55.20;24.20;;;1.20;99.90;;;;;;4190253;28;20258;-57
2021/12/27 07:48:22;;;;;;;49.33;21.50;;;1.20;99.90;;;;;;4188969;28;20265;-57
2021/12/27 07:50:23;;;;;;;50.47;23.47;;;1.30;99.90;;;;;;4190008;28;20296;-55
2021/12/27 07:52:25;;;;;;;46.93;21.77;;;1.20;99.90;;;;;;4187861;28;20261;-59
2021/12/27 07:54:27;;;;;;;43.03;19.87;;;1.30;99.90;;;;;;4190073;28;20281;-58
2021/12/27 07:56:28;;;;;;;46.30;20.50;;;1.30;99.90;;;;;;4189430;28;20310;-57
2021/12/27 07:58:29;;;;;;;43.40;18.60;;;1.40;99.90;;;;;;4189195;28;20302;-58
2021/12/27 08:00:30;;;;;;;46.50;20.70;;;1.40;99.90;;;;;;4190152;28;20961;-56
2021/12/27 08:02:32;;;;;;;44.13;19.33;;;1.40;99.90;;;;;;4189114;28;20293;-62
2021/12/27 08:04:34;;;;;;;49.40;21.43;;;1.40;99.90;;;;;;4190096;28;20283;-57
2021/12/27 08:06:36;;;;;;;44.63;21.90;;;1.50;99.90;;;;;;4188969;28;20311;-58
2021/12/27 08:08:37;;;;;;;54.90;25.53;;;1.50;99.90;;;;;;4189152;28;20277;-60
2021/12/27 08:10:38;;;;;;;56.80;28.33;;;1.50;99.90;;;;;;4188840;28;20746;-58
2021/12/27 08:12:40;;;;;;;58.63;26.90;;;1.50;99.90;;;;;;4188321;28;20308;-57
2021/12/27 08:14:42;;;;;;;53.17;27.80;;;1.60;99.90;;;;;;4188544;28;20427;-59
2021/12/27 08:16:43;;;;;;;60.03;27.60;;;1.60;99.90;;;;;;4190092;28;20262;-58
2021/12/27 08:18:46;;;;;;;53.97;25.90;;;1.60;99.90;;;;;;4188722;28;20266;-58
2021/12/27 08:20:48;;;;;;;48.43;22.90;;;1.60;99.90;;;;;;4189808;28;20275;-59
2021/12/27 08:22:49;;;;;;;43.57;20.83;;;1.70;99.90;;;;;;4188604;28;20297;-58
2021/12/27 08:24:51;;;;;;;40.57;20.73;;;1.70;99.90;;;;;;4189623;28;20769;-56
2021/12/27 08:26:53;;;;;;;34.03;18.63;;;1.70;99.90;;;;;;4188600;28;20261;-59
2021/12/27 08:28:55;;;;;;;40.97;20.03;;;1.70;99.90;;;;;;4189399;28;20266;-57
2021/12/27 08:30:56;;;;;;;46.03;21.23;;;1.70;99.90;;;;;;4189445;28;20307;-59
2021/12/27 08:32:59;;;;;;;37.70;20.40;;;1.80;99.90;;;;;;4191103;28;20695;-57
2021/12/27 08:35:01;;;;;;;37.10;18.67;;;1.80;99.90;;;;;;4192886;28;20331;-60
2021/12/27 08:37:02;;;;;;;37.67;18.00;;;1.70;99.90;;;;;;4191372;28;20269;-58
2021/12/27 08:39:04;;;;;;;39.07;19.60;;;1.70;99.90;;;;;;4192744;28;20261;-57
2021/12/27 08:41:05;;;;;;;33.23;18.27;;;1.70;99.90;;;;;;4190104;28;20299;-57
2021/12/27 08:43:07;;;;;;;30.67;17.53;;;1.70;99.90;;;;;;4192736;28;20289;-57
2021/12/27 08:45:09;;;;;;;36.60;18.53;;;1.80;99.90;;;;;;4191153;28;20405;-57
2021/12/27 08:47:12;;;;;;;33.50;18.47;;;1.80;99.90;;;;;;4192721;28;20326;-57
2021/12/27 08:49:13;;;;;;;35.50;18.43;;;1.80;99.90;;;;;;4191341;28;20257;-54
2021/12/27 08:51:14;;;;;;;38.53;19.53;;;1.80;99.90;;;;;;4192874;28;20327;-57
2021/12/27 08:53:16;;;;;;;35.37;19.30;;;1.80;99.90;;;;;;4191570;28;20315;-56
2021/12/27 08:55:17;;;;;;;35.83;19.00;;;1.90;99.90;;;;;;4192533;28;20310;-55
2021/12/27 08:57:18;;;;;;;42.00;21.00;;;1.80;99.90;;;;;;4191099;28;20266;-57
2021/12/27 08:59:20;;;;;;;36.87;20.57;;;1.80;99.90;;;;;;4191849;28;20281;-55
2021/12/27 09:01:21;;;;;;;45.77;22.93;;;1.90;99.90;;;;;;4192091;28;20685;-58
2021/12/27 09:03:23;;;;;;;39.10;21.17;;;1.90;99.90;;;;;;4191575;28;20700;-58
2021/12/27 09:05:24;;;;;;;42.10;23.30;;;1.80;99.90;;;;;;4192260;28;20262;-58
2021/12/27 09:07:25;;;;;;;38.97;21.43;;;1.80;99.90;;;;;;4191430;28;20270;-55
2021/12/27 09:09:26;;;;;;;42.67;23.60;;;1.80;99.90;;;;;;4192218;28;20336;-57
2021/12/27 09:11:28;;;;;;;42.47;23.80;;;1.90;99.90;;;;;;4190902;28;20365;-56
2021/12/27 09:13:31;;;;;;;46.40;24.70;;;1.90;99.90;;;;;;4192431;28;20259;-58
2021/12/27 09:15:32;;;;;;;43.23;23.13;;;1.90;99.90;;;;;;4190507;28;20599;-53
2021/12/27 09:17:34;;;;;;;38.60;22.63;;;1.90;99.90;;;;;;4192453;28;20269;-58
2021/12/27 09:19:35;;;;;;;39.87;23.23;;;1.90;99.90;;;;;;4190942;28;20265;-58
2021/12/27 09:21:36;;;;;;;39.00;22.30;;;1.90;99.90;;;;;;4192189;28;20262;-55
2021/12/27 09:23:37;;;;;;;35.97;20.67;;;1.90;99.90;;;;;;4190105;28;20543;-57
2021/12/27 09:25:39;;;;;;;42.13;22.27;;;1.90;99.90;;;;;;4192055;28;20322;-58
2021/12/27 09:27:40;;;;;;;40.10;21.00;;;1.90;99.90;;;;;;4190796;28;20261;-59
2021/12/27 09:29:43;;;;;;;39.37;22.27;;;1.90;99.90;;;;;;4191244;28;20303;-58
2021/12/27 09:31:44;;;;;;;38.63;21.27;;;1.90;99.90;;;;;;4191413;28;20265;-58
2021/12/27 09:33:45;;;;;;;43.23;23.77;;;1.90;99.90;;;;;;4191167;28;20273;-60
2021/12/27 09:35:46;;;;;;;41.47;23.83;;;1.90;99.90;;;;;;4191386;28;20254;-57
2021/12/27 09:37:47;;;;;;;42.77;24.60;;;1.90;99.90;;;;;;4190813;28;20261;-63
2021/12/27 09:39:53;;;;;;;44.67;24.60;;;1.90;99.90;;;;;;4192178;28;20384;-59
2021/12/27 09:41:54;;;;;;;49.57;26.67;;;1.90;99.90;;;;;;4190408;28;20330;-55
2021/12/27 09:43:56;;;;;;;42.63;23.57;;;1.90;99.90;;;;;;4190884;28;20327;-57
2021/12/27 09:45:57;;;;;;;44.57;24.27;;;1.90;99.90;;;;;;4190264;28;20266;-58
2021/12/27 09:47:58;;;;;;;49.33;26.50;;;1.90;99.90;;;;;;4191672;28;20605;-58
2021/12/27 09:49:59;;;;;;;50.33;28.00;;;1.90;99.90;;;;;;4190091;28;20273;-55
2021/12/27 09:52:01;;;;;;;48.90;25.50;;;1.80;99.90;;;;;;4191775;28;20386;-57
2021/12/27 09:54:02;;;;;;;50.93;26.73;;;1.90;99.90;;;;;;4190212;28;20669;-57
2021/12/27 09:56:10;;;;;;;50.97;27.40;;;1.90;99.90;;;;;;4191540;28;20269;-57
2021/12/27 09:58:12;;;;;;;66.27;34.70;;;1.90;99.90;;;;;;4190671;28;20697;-57
2021/12/27 10:00:13;;;;;;;61.73;30.63;;;1.90;99.90;;;;;;4191285;28;20334;-56
2021/12/27 10:02:15;;;;;;;56.27;30.77;;;1.80;99.90;;;;;;4190573;28;20838;-56
2021/12/27 10:04:16;;;;;;;57.87;30.80;;;1.80;99.90;;;;;;4190960;28;20277;-59
2021/12/27 10:06:19;;;;;;;71.70;36.33;;;1.80;99.90;;;;;;4190279;28;20792;-57
2021/12/27 10:08:20;;;;;;;56.50;28.57;;;1.80;99.90;;;;;;4190126;28;20713;-54
2021/12/27 10:10:21;;;;;;;43.00;24.83;;;1.80;99.90;;;;;;4190814;28;20265;-55
2021/12/27 10:12:23;;;;;;;43.10;22.40;;;1.80;99.90;;;;;;4190126;28;20274;-54
2021/12/27 10:14:24;;;;;;;41.90;22.47;;;1.80;99.90;;;;;;4190862;28;20267;-57
2021/12/27 10:16:26;;;;;;;41.27;22.30;;;1.80;99.90;;;;;;4189165;28;20818;-57
2021/12/27 10:18:27;;;;;;;39.50;19.70;;;1.80;99.90;;;;;;4191523;28;20660;-59
2021/12/27 10:20:29;;;;;;;37.23;19.63;;;1.80;99.90;;;;;;4189897;28;20730;-56
2021/12/27 10:22:30;;;;;;;39.10;20.60;;;1.80;99.90;;;;;;4190999;28;20757;-58
2021/12/27 10:24:31;;;;;;;36.17;19.77;;;1.80;99.90;;;;;;4189918;28;20286;-60
2021/12/27 10:26:33;;;;;;;41.40;20.80;;;1.80;99.90;;;;;;4190163;28;20353;-55